Tropical Cyclones
[Index]
Main Index Home Page Stock Weather Photos Extreme Storms Discussion Storm News and Storm Chasing Reports Tropical Cyclones / Hurricanes / Typhoons Weather Data and Links Wild Fires / Bushfires Weather Observation Techniques Weather Picture Catalogue Tornado Pictures and Reports Stock Video Footage and DVDs for sale
Season 1988-1989 Tropical Cyclone JINABO Track Map
Season 1988-1989 Summaries: [BoM-AU] [JTWC-AU] [JTWC-SIO] [JTWC-SPAC] [JTWC-SH]
<<- Previous TC | JTWC 1988-1989 Season | Next TC ->>

click for intensity scale information  Lat/long Grid: Show Hide

 Date Labels: Show Hide

Joint Typhoon Warning Centre Cyclone Data

Name: JINABO

21 Mar 1989 06:00 UTC to 31 Mar 1989 06:00 UTC

    date/time    lat    long     hPa   cat  kts
1989-03-21 06   16.0    65.6                  25          
1989-03-21 12   16.5    65.6                  25          
1989-03-21 18   17.0    65.6                  25          
1989-03-22 00   17.6    65.4                  25          
1989-03-22 06   17.9    64.6                  25          
1989-03-22 12   18.1    63.2                  25          
1989-03-22 18   17.9    61.5                  25          
1989-03-23 00   17.5    60.3                  25          
1989-03-23 06   17.1    59.3                  25          
1989-03-23 12   16.7    58.3                  25          
1989-03-23 18   16.5    57.3                  25          
1989-03-24 00   16.4    56.3                  25          
1989-03-24 06   16.2    55.3                  25          
1989-03-24 12   16.0    54.3                  25          
1989-03-24 18   16.2    53.5                  30          
1989-03-25 00   16.6    52.7                  35          
1989-03-25 06   17.2    51.9            1     45          
1989-03-25 12   18.0    51.6            2     55          
1989-03-25 18   18.5    51.4            2     55          
1989-03-26 00   19.0    51.2            2     55          
1989-03-26 06   19.3    50.6            2     60          
1989-03-26 12   19.5    50.1            2     65          
1989-03-26 18   19.9    49.8            2     65          
1989-03-27 00   20.1    49.6            2     65          
1989-03-27 06   20.3    49.4            2     65          
1989-03-27 12   20.6    49.2            2     65          
1989-03-27 18   20.8    49.3            2     60          
1989-03-28 00   20.8    49.4            2     55          
1989-03-28 06   20.8    49.4            2     55          
1989-03-28 12   20.8    49.4            2     55          
1989-03-28 18   20.9    49.5            1     50          
1989-03-29 00   20.9    49.8            1     45          
1989-03-29 06   20.9    50.1            1     40          
1989-03-29 12   21.0    50.4                  35          
1989-03-29 18   21.1    50.7                  35          
1989-03-30 00   21.5    50.9                  30          
1989-03-30 06   22.3    51.1                  25          
1989-03-30 12   23.2    50.9                  25          
1989-03-30 18   24.1    50.6                  25          
1989-03-31 00   25.1    50.2                  25          
1989-03-31 06   26.1    49.8                  20          
Winds are 1-min average.

Tropical cyclone tracks developed by Michael Bath using data from the Joint Typhoon Warning Centre Best Tracks and Google Maps.


[Australian Severe Weather index] [Copyright Notice] [Email Contacts] [Search This Site] [Privacy Policy]
Document: tropical_cyclone_jinabo.htm Updated: 18 September 2016